Terminal Aerodrome Forecast
Issued by NWS Newport/Morehead City, NC

Home | Current Version | Previous Version | Text Only | Print | Product List | Glossary On
Versions: 1 2 3 4 5 6 7 8 9 10 11 12 13 14 15 16 17 18 19
326
FTUS42 KMHX 062009 AAB
TAFEWN
TAF AMD
KEWN 062009Z 0620/0718 13010G20KT P6SM SCT006
     FM062100 15010KT P6SM BKN006
     FM062200 24009G16KT P6SM SCT003 BKN007
     FM070400 30007KT 5SM BR SCT003 BKN007
     FM071300 34006KT P6SM SCT250=

USA.gov is the U.S. government's official web portal to all federal, state and local government web resources and services.